createdAt,value
2023-01-17T00:00:09.322Z,0.93
2023-01-17T00:02:36.096Z,1.38
2023-01-17T00:05:21.440Z,0.40
2023-01-17T00:08:06.989Z,1.50
2023-01-17T00:10:34.186Z,1.33
2023-01-17T00:13:03.638Z,0.55
2023-01-17T00:15:31.609Z,0.93
2023-01-17T00:17:58.978Z,0.80
2023-01-17T00:20:47.406Z,0.30
2023-01-17T00:23:36.154Z,1.30
2023-01-17T00:26:03.791Z,0.40
2023-01-17T00:28:39.192Z,0.40
2023-01-17T00:31:08.041Z,0.43
2023-01-17T00:33:35.419Z,0.93
2023-01-17T00:36:03.671Z,0.70
2023-01-17T00:38:32.464Z,1.15
2023-01-17T00:41:11.309Z,0.60
2023-01-17T00:43:56.712Z,1.05
2023-01-17T00:46:42.207Z,0.80
2023-01-17T00:49:27.651Z,0.93
2023-01-17T00:52:13.736Z,0.80
2023-01-17T00:54:59.744Z,0.60
2023-01-17T00:57:45.751Z,0.73
2023-01-17T01:00:31.517Z,1.02
2023-01-17T01:03:17.248Z,0.70
2023-01-17T01:06:02.330Z,0.70
2023-01-17T01:08:48.661Z,1.50
2023-01-17T01:11:36.707Z,0.80
2023-01-17T01:14:23.026Z,1.40
2023-01-17T01:17:08.799Z,0.60
2023-01-17T01:19:54.090Z,1.42
2023-01-17T01:22:39.677Z,0.50
2023-01-17T01:25:25.718Z,0.63
2023-01-17T01:28:11.496Z,0.90
2023-01-17T01:30:56.475Z,1.00
2023-01-17T01:33:23.422Z,0.63
2023-01-17T01:35:54.194Z,0.40
2023-01-17T01:38:25.366Z,0.70
2023-01-17T01:40:54.315Z,0.60
2023-01-17T01:43:40.977Z,0.70
2023-01-17T01:46:08.324Z,1.13
2023-01-17T01:48:40.078Z,0.30
2023-01-17T01:51:10.809Z,0.60
2023-01-17T01:53:40.500Z,0.50
2023-01-17T01:56:12.007Z,0.50
2023-01-17T01:58:39.799Z,0.98
2023-01-17T02:01:08.509Z,1.13
2023-01-17T02:03:36.653Z,1.67
2023-01-17T02:06:34.792Z,1.73
2023-01-17T02:09:07.890Z,1.20
2023-01-17T02:11:37.034Z,1.27
2023-01-17T02:14:04.083Z,2.25
2023-01-17T02:17:08.235Z,1.20
2023-01-17T02:20:25.925Z,4.60
2023-01-17T02:23:14.590Z,1.85
2023-01-17T02:26:19.166Z,5.00
2023-01-17T02:29:23.457Z,2.25
2023-01-17T02:31:57.463Z,2.73
2023-01-17T02:34:54.669Z,2.25
2023-01-17T02:37:35.027Z,2.78
2023-01-17T02:40:14.904Z,2.67
2023-01-17T02:42:46.285Z,1.30
2023-01-17T02:45:17.607Z,1.60
2023-01-17T02:47:44.389Z,2.08
2023-01-17T02:50:17.833Z,3.03
2023-01-17T02:53:08.485Z,2.60
2023-01-17T02:56:00.047Z,2.80
2023-01-17T02:59:01.273Z,5.25
2023-01-17T03:01:48.463Z,2.55
2023-01-17T03:04:29.536Z,1.92
2023-01-17T03:06:57.664Z,1.92
2023-01-17T03:09:25.659Z,3.08
2023-01-17T03:11:52.738Z,2.47
2023-01-17T03:14:19.407Z,3.10
2023-01-17T03:16:46.437Z,3.70
2023-01-17T03:19:15.195Z,4.45
2023-01-17T03:21:42.302Z,2.25
2023-01-17T03:24:09.087Z,3.72
2023-01-17T03:26:36.048Z,4.22
2023-01-17T03:29:03.207Z,2.67
2023-01-17T03:31:29.952Z,2.90
2023-01-17T03:33:57.218Z,2.38
2023-01-17T03:36:23.943Z,3.58
2023-01-17T03:38:51.067Z,2.90
2023-01-17T03:41:18.101Z,3.40
2023-01-17T03:43:44.952Z,2.15
2023-01-17T03:46:28.849Z,2.45
2023-01-17T03:48:55.897Z,3.20
2023-01-17T03:51:22.816Z,1.77
2023-01-17T03:53:50.613Z,2.17
2023-01-17T03:56:17.382Z,1.90
2023-01-17T03:58:44.090Z,1.95
2023-01-17T04:01:11.377Z,1.73
2023-01-17T04:03:39.186Z,1.65
2023-01-17T04:06:06.412Z,2.75
2023-01-17T04:08:33.042Z,2.40
2023-01-17T04:10:59.836Z,1.00
2023-01-17T04:13:26.602Z,1.52
2023-01-17T04:15:54.200Z,1.25
2023-01-17T04:18:23.530Z,1.92
2023-01-17T04:20:50.998Z,1.45
2023-01-17T04:23:18.059Z,2.15
2023-01-17T04:25:44.955Z,1.48
2023-01-17T04:28:11.631Z,1.65
2023-01-17T04:30:38.314Z,1.33
2023-01-17T04:33:05.490Z,1.55
2023-01-17T04:35:33.679Z,1.77
2023-01-17T04:38:00.497Z,3.53
2023-01-17T04:40:27.979Z,1.23
2023-01-17T04:42:54.678Z,3.63
2023-01-17T04:45:22.037Z,2.13
2023-01-17T04:47:48.744Z,4.50
2023-01-17T04:50:15.634Z,1.88
2023-01-17T04:52:43.158Z,3.42
2023-01-17T04:55:11.120Z,1.85
2023-01-17T04:57:37.919Z,1.65
2023-01-17T05:00:05.469Z,2.55
2023-01-17T05:02:32.520Z,3.80
2023-01-17T05:04:59.377Z,4.18
2023-01-17T05:07:26.436Z,1.70
2023-01-17T05:09:53.592Z,1.75
2023-01-17T05:12:20.289Z,2.85
2023-01-17T05:14:47.606Z,1.45
2023-01-17T05:17:14.501Z,1.20
2023-01-17T05:19:41.276Z,1.27
2023-01-17T05:22:15.454Z,1.10
2023-01-17T05:27:13.312Z,1.83
2023-01-17T05:29:40.433Z,1.40
2023-01-17T05:32:07.121Z,2.50
2023-01-17T05:34:33.976Z,1.10
2023-01-17T05:37:00.917Z,2.75
2023-01-17T05:39:27.725Z,1.23
2023-01-17T05:41:54.585Z,1.50
2023-01-17T05:44:21.701Z,2.67
2023-01-17T05:46:48.536Z,2.05
2023-01-17T05:49:15.134Z,2.40
2023-01-17T05:51:41.965Z,2.53
2023-01-17T05:54:08.815Z,2.05
2023-01-17T05:56:35.475Z,1.35
2023-01-17T05:59:02.407Z,1.33
2023-01-17T06:01:29.124Z,2.58
2023-01-17T06:03:55.833Z,1.08
2023-01-17T06:06:23.124Z,1.30
2023-01-17T06:08:50.303Z,1.98
2023-01-17T06:11:18.805Z,1.55
2023-01-17T06:13:45.934Z,2.13
2023-01-17T06:16:12.743Z,1.92
2023-01-17T06:18:39.861Z,3.92
2023-01-17T06:21:07.078Z,2.22
2023-01-17T06:23:33.715Z,1.60
2023-01-17T06:26:04.025Z,2.35
2023-01-17T06:28:34.847Z,3.50
2023-01-17T06:31:06.946Z,3.38
2023-01-17T06:33:34.122Z,4.15
2023-01-17T06:36:01.533Z,1.80
2023-01-17T06:38:30.354Z,2.33
2023-01-17T06:41:00.869Z,3.28
2023-01-17T06:43:33.043Z,1.70
2023-01-17T06:46:01.537Z,2.40
2023-01-17T06:48:28.302Z,6.13
2023-01-17T06:50:55.203Z,6.45
2023-01-17T06:53:21.878Z,3.58
2023-01-17T06:55:48.775Z,3.50
2023-01-17T06:58:15.459Z,3.05
2023-01-17T07:00:42.371Z,1.63
2023-01-17T07:03:18.514Z,3.38
2023-01-17T07:05:45.346Z,2.65
2023-01-17T07:08:12.169Z,4.10
2023-01-17T07:10:38.832Z,2.20
2023-01-17T07:13:05.560Z,3.00
2023-01-17T07:15:32.307Z,2.47
2023-01-17T07:18:01.586Z,9.02
2023-01-17T07:20:28.393Z,4.38
2023-01-17T07:22:55.269Z,4.70
2023-01-17T07:25:22.513Z,3.53
2023-01-17T07:27:49.243Z,3.20
2023-01-17T07:30:16.445Z,3.42
2023-01-17T07:32:43.144Z,3.72
2023-01-17T07:35:10.287Z,3.50
2023-01-17T07:37:36.937Z,4.45
2023-01-17T07:40:04.612Z,3.67
2023-01-17T07:42:31.481Z,2.83
2023-01-17T07:44:58.271Z,3.33
2023-01-17T07:47:25.803Z,1.95
2023-01-17T07:49:52.640Z,3.40
2023-01-17T07:52:19.440Z,4.00
2023-01-17T07:54:46.059Z,3.97
2023-01-17T07:57:13.607Z,1.65
2023-01-17T07:59:40.313Z,2.15
2023-01-17T08:02:10.459Z,3.05
2023-01-17T08:04:37.284Z,1.23
2023-01-17T08:07:03.995Z,3.17
2023-01-17T08:09:31.103Z,3.90
2023-01-17T08:11:57.968Z,1.70
2023-01-17T08:14:25.268Z,1.95
2023-01-17T08:16:52.064Z,4.28
2023-01-17T08:19:19.206Z,1.23
2023-01-17T08:21:46.937Z,3.30
2023-01-17T08:24:15.013Z,6.57
2023-01-17T08:26:42.334Z,2.33
2023-01-17T08:29:09.341Z,2.55
2023-01-17T08:31:36.387Z,3.38
2023-01-17T08:34:03.608Z,5.10
2023-01-17T08:36:31.507Z,3.95
2023-01-17T08:38:58.778Z,3.22
2023-01-17T08:41:27.634Z,4.35
2023-01-17T08:43:54.345Z,2.30
2023-01-17T08:46:21.133Z,1.17
2023-01-17T08:48:47.785Z,3.03
2023-01-17T08:51:14.554Z,2.55
2023-01-17T08:53:42.113Z,2.53
2023-01-17T08:56:09.678Z,1.75
2023-01-17T08:58:36.581Z,2.47
2023-01-17T09:01:05.343Z,1.67
2023-01-17T09:03:33.464Z,1.45
2023-01-17T09:06:11.368Z,2.17
2023-01-17T09:08:38.423Z,2.25
2023-01-17T09:11:10.770Z,2.75
2023-01-17T09:13:37.975Z,3.10
2023-01-17T09:16:05.866Z,1.75
2023-01-17T09:18:34.072Z,2.88
2023-01-17T09:21:15.867Z,6.32
2023-01-17T09:23:42.957Z,6.63
2023-01-17T09:26:19.551Z,3.53
2023-01-17T09:28:46.385Z,3.25
2023-01-17T09:31:15.366Z,3.28
2023-01-17T09:33:43.523Z,2.40
2023-01-17T09:36:10.962Z,3.70
2023-01-17T09:38:38.587Z,2.95
2023-01-17T09:41:20.419Z,4.30
2023-01-17T09:44:33.515Z,3.20
2023-01-17T09:47:07.438Z,2.97
2023-01-17T09:49:42.788Z,2.75
2023-01-17T09:52:12.464Z,2.30
2023-01-17T09:54:41.675Z,4.05
2023-01-17T09:57:27.110Z,4.63
2023-01-17T10:00:22.932Z,3.05
2023-01-17T10:03:27.041Z,1.35
2023-01-17T10:06:17.695Z,2.13
2023-01-17T10:09:26.004Z,2.88
2023-01-17T10:12:40.408Z,4.18
2023-01-17T10:15:48.782Z,3.15
2023-01-17T10:19:08.503Z,2.70
2023-01-17T10:22:13.159Z,3.28
2023-01-17T10:25:18.939Z,3.85
2023-01-17T10:27:55.382Z,2.95
2023-01-17T10:30:31.607Z,4.00
2023-01-17T10:33:00.437Z,2.50
2023-01-17T10:35:30.897Z,6.35
2023-01-17T10:37:59.524Z,1.75
2023-01-17T10:40:41.488Z,4.15
2023-01-17T10:43:39.570Z,1.95
2023-01-17T10:46:07.911Z,2.33
2023-01-17T10:48:46.711Z,2.17
2023-01-17T10:51:28.355Z,2.65
2023-01-17T10:54:23.196Z,2.45
2023-01-17T10:59:34.545Z,2.88
2023-01-17T11:02:07.799Z,2.42
2023-01-17T11:04:39.433Z,2.43
2023-01-17T11:07:15.096Z,1.88
2023-01-17T11:09:49.774Z,1.90
2023-01-17T11:12:42.221Z,2.10
2023-01-17T11:15:29.328Z,4.85
2023-01-17T11:18:05.209Z,1.60
2023-01-17T11:20:43.210Z,2.72
2023-01-17T11:23:19.095Z,1.70
2023-01-17T11:25:55.316Z,3.45
2023-01-17T11:28:36.869Z,2.60
2023-01-17T11:31:23.766Z,3.40
2023-01-17T11:34:18.185Z,4.95
2023-01-17T11:36:45.264Z,3.20
2023-01-17T11:39:38.268Z,5.95
2023-01-17T11:42:06.828Z,2.15
2023-01-17T11:44:35.470Z,3.63
2023-01-17T11:47:19.249Z,2.30
2023-01-17T11:49:48.038Z,2.00
2023-01-17T11:52:26.425Z,3.88
2023-01-17T11:54:54.981Z,1.42
2023-01-17T11:57:31.050Z,2.58
2023-01-17T12:00:20.124Z,3.85
2023-01-17T12:03:11.314Z,2.10
2023-01-17T12:05:51.622Z,2.88
2023-01-17T12:08:51.842Z,4.45
2023-01-17T12:11:37.619Z,2.08
2023-01-17T12:14:18.875Z,2.47
2023-01-17T12:17:00.754Z,5.47
2023-01-17T12:19:43.807Z,4.05
2023-01-17T12:23:06.496Z,7.22
2023-01-17T12:26:05.093Z,6.50
2023-01-17T12:28:52.972Z,2.65
2023-01-17T12:31:53.303Z,4.45
2023-01-17T12:34:26.230Z,3.58
2023-01-17T12:37:03.827Z,2.92
2023-01-17T12:39:39.777Z,5.85
2023-01-17T12:42:14.160Z,5.55
2023-01-17T12:44:56.228Z,3.55
2023-01-17T12:47:23.019Z,3.80
2023-01-17T12:50:04.165Z,4.03
2023-01-17T12:52:49.015Z,3.78
2023-01-17T12:55:32.702Z,3.97
2023-01-17T12:58:01.236Z,2.87
2023-01-17T13:00:29.939Z,2.90
2023-01-17T13:03:24.844Z,3.70
2023-01-17T13:08:24.093Z,5.95
2023-01-17T13:10:57.759Z,5.28
2023-01-17T13:13:26.974Z,6.00
2023-01-17T13:15:56.504Z,5.78
2023-01-17T13:18:26.673Z,6.60
2023-01-17T13:21:22.977Z,6.07
2023-01-17T13:24:21.961Z,4.03
2023-01-17T13:27:00.999Z,2.92
2023-01-17T13:29:40.108Z,4.82
2023-01-17T13:32:38.211Z,5.07
2023-01-17T13:35:13.944Z,2.40
2023-01-17T13:37:52.931Z,4.38
2023-01-17T13:40:32.173Z,5.88
2023-01-17T13:43:03.859Z,7.68
2023-01-17T13:45:35.876Z,5.65
2023-01-17T13:48:30.306Z,3.47
2023-01-17T13:50:58.909Z,4.75
2023-01-17T13:53:34.487Z,3.78
2023-01-17T13:56:14.880Z,3.05
2023-01-17T13:58:49.014Z,3.47
2023-01-17T14:04:09.164Z,7.15
2023-01-17T14:06:49.064Z,2.90
2023-01-17T14:09:21.212Z,2.97
2023-01-17T14:17:25.805Z,2.92
2023-01-17T14:19:55.149Z,3.50
2023-01-17T14:22:26.396Z,4.35
2023-01-17T14:25:10.143Z,3.00
2023-01-17T14:28:03.905Z,3.07
2023-01-17T14:30:37.231Z,2.53
2023-01-17T14:33:17.347Z,2.30
2023-01-17T14:35:57.092Z,2.13
2023-01-17T14:38:29.267Z,7.45
2023-01-17T14:41:08.028Z,3.08
2023-01-17T14:43:38.054Z,2.67
2023-01-17T14:46:25.177Z,3.30
2023-01-17T14:49:00.082Z,3.67
2023-01-17T14:51:26.874Z,2.85
2023-01-17T14:54:05.731Z,3.17
2023-01-17T14:56:32.712Z,5.43
2023-01-17T14:59:17.516Z,2.75
2023-01-17T15:01:55.214Z,4.30
2023-01-17T15:04:30.930Z,2.00
2023-01-17T15:06:59.024Z,2.67
2023-01-17T15:09:30.380Z,5.40
2023-01-17T15:11:58.239Z,3.30
2023-01-17T15:14:30.472Z,4.32
2023-01-17T15:16:57.511Z,3.67
2023-01-17T15:19:27.886Z,2.60
2023-01-17T15:21:55.800Z,3.33
2023-01-17T15:24:26.883Z,2.70
2023-01-17T15:26:53.771Z,4.10
2023-01-17T15:29:34.266Z,5.20
2023-01-17T15:32:05.984Z,3.13
2023-01-17T15:34:43.776Z,5.07
2023-01-17T15:37:31.139Z,43.00
2023-01-17T15:40:19.347Z,40.10
2023-01-17T15:42:52.326Z,5.22
2023-01-17T15:45:22.170Z,2.10
2023-01-17T15:47:49.422Z,2.65
2023-01-17T15:50:42.508Z,4.75
2023-01-17T15:53:31.923Z,9.95
2023-01-17T15:55:59.395Z,8.23
2023-01-17T15:58:28.707Z,4.25
2023-01-17T16:00:55.737Z,3.42
2023-01-17T16:03:29.491Z,5.82
2023-01-17T16:05:58.984Z,5.22
2023-01-17T16:08:51.940Z,21.23
2023-01-17T16:11:19.287Z,39.85
2023-01-17T16:13:47.535Z,43.45
2023-01-17T16:16:20.216Z,20.23
2023-01-17T16:18:47.981Z,32.90
2023-01-17T16:21:26.684Z,5.68
2023-01-17T16:23:54.004Z,10.48
2023-01-17T16:26:20.892Z,7.60
2023-01-17T16:28:48.247Z,9.10
2023-01-17T16:31:16.013Z,47.40
2023-01-17T16:33:42.769Z,20.05
2023-01-17T16:36:15.081Z,107.25
2023-01-17T16:38:43.193Z,7.05
2023-01-17T16:41:10.049Z,3.67
2023-01-17T16:43:36.763Z,3.35
2023-01-17T16:46:03.562Z,1.73
2023-01-17T16:48:30.322Z,1.65
2023-01-17T16:50:57.313Z,1.60
2023-01-17T16:53:27.065Z,2.13
2023-01-17T16:55:57.807Z,15.45
2023-01-17T16:58:24.730Z,12.85
2023-01-17T17:00:51.941Z,9.90
2023-01-17T17:03:20.805Z,13.50
2023-01-17T17:05:55.936Z,9.15
2023-01-17T17:08:29.973Z,8.57
2023-01-17T17:13:36.520Z,12.82
2023-01-17T17:16:09.877Z,6.57
2023-01-17T17:18:37.417Z,5.32
2023-01-17T17:21:04.387Z,5.65
2023-01-17T17:23:33.451Z,9.00
2023-01-17T17:26:03.826Z,16.25
2023-01-17T17:28:31.088Z,5.78
2023-01-17T17:31:05.891Z,6.97
2023-01-17T17:33:32.978Z,10.80
2023-01-17T17:36:07.883Z,10.20
2023-01-17T17:38:35.643Z,10.32
2023-01-17T17:41:10.570Z,14.30
2023-01-17T17:43:39.051Z,22.23
2023-01-17T17:46:07.913Z,35.30
2023-01-17T17:48:35.087Z,30.70
2023-01-17T17:51:02.102Z,23.83
2023-01-17T17:53:29.016Z,13.50
2023-01-17T17:55:56.755Z,15.00
2023-01-17T17:58:24.148Z,19.42
2023-01-17T18:00:51.915Z,17.95
2023-01-17T18:03:20.447Z,47.05
2023-01-17T18:05:48.740Z,27.25
2023-01-17T18:08:15.934Z,25.70
2023-01-17T18:10:43.081Z,18.40
2023-01-17T18:13:10.088Z,20.40
2023-01-17T18:15:36.816Z,23.63
2023-01-17T18:18:03.703Z,40.03
2023-01-17T18:20:30.734Z,28.88
2023-01-17T18:22:57.868Z,45.90
2023-01-17T18:25:25.570Z,22.90
2023-01-17T18:27:52.650Z,20.80
2023-01-17T18:30:19.585Z,27.63
2023-01-17T18:32:50.192Z,39.38
2023-01-17T18:35:17.242Z,64.10
2023-01-17T18:37:43.976Z,45.85
2023-01-17T18:40:11.562Z,40.13
2023-01-17T18:42:39.304Z,57.78
2023-01-17T18:45:06.937Z,19.73
2023-01-17T18:47:34.034Z,17.45
2023-01-17T18:50:02.197Z,15.50
2023-01-17T18:52:29.340Z,51.67
2023-01-17T18:54:56.612Z,8.38
2023-01-17T18:57:26.569Z,4.97
2023-01-17T18:59:53.852Z,5.85
2023-01-17T19:02:21.715Z,3.97
2023-01-17T19:04:48.808Z,4.53
2023-01-17T19:07:15.844Z,5.07
2023-01-17T19:09:44.438Z,271.42
2023-01-17T19:12:11.310Z,77.85
2023-01-17T19:14:38.973Z,13.32
2023-01-17T19:17:05.743Z,69.47
2023-01-17T19:19:32.439Z,525.65
2023-01-17T19:21:59.231Z,607.25
2023-01-17T19:24:26.680Z,503.40
2023-01-17T19:26:54.662Z,143.73
2023-01-17T19:29:23.088Z,81.97
2023-01-17T19:31:49.918Z,35.50
2023-01-17T19:34:19.947Z,23.27
2023-01-17T19:36:47.491Z,21.13
2023-01-17T19:39:14.470Z,16.05
2023-01-17T19:41:43.870Z,35.80
2023-01-17T19:44:14.071Z,7.57
2023-01-17T19:46:41.762Z,6.50
2023-01-17T19:49:09.192Z,6.60
2023-01-17T19:51:36.241Z,8.23
2023-01-17T19:54:04.407Z,27.50
2023-01-17T19:56:31.491Z,20.88
2023-01-17T19:59:02.092Z,18.95
2023-01-17T20:01:31.538Z,18.73
2023-01-17T20:03:59.179Z,18.63
2023-01-17T20:06:32.483Z,18.63
2023-01-17T20:09:04.019Z,25.77
2023-01-17T20:11:31.097Z,27.08
2023-01-17T20:13:59.769Z,21.88
2023-01-17T20:16:29.414Z,18.42
2023-01-17T20:18:58.705Z,17.42
2023-01-17T20:21:27.712Z,16.25
2023-01-17T20:23:55.487Z,12.98
2023-01-17T20:26:26.254Z,10.50
2023-01-17T20:29:19.418Z,14.85
2023-01-17T20:31:52.646Z,37.50
2023-01-17T20:34:19.878Z,16.47
2023-01-17T20:36:47.575Z,11.80
2023-01-17T20:39:15.146Z,11.20
2023-01-17T20:41:44.111Z,8.40
2023-01-17T20:44:16.117Z,8.52
2023-01-17T20:46:43.591Z,9.82
2023-01-17T20:49:15.479Z,13.23
2023-01-17T20:51:44.827Z,13.52
2023-01-17T20:54:16.800Z,14.98
2023-01-17T20:56:44.894Z,15.30
2023-01-17T20:59:15.169Z,22.23
2023-01-17T21:01:44.530Z,38.50
2023-01-17T21:04:13.134Z,20.45
2023-01-17T21:06:41.001Z,26.25
2023-01-17T21:09:10.613Z,34.63
2023-01-17T21:11:37.988Z,26.35
2023-01-17T21:14:09.071Z,17.88
2023-01-17T21:16:36.357Z,19.35
2023-01-17T21:19:03.169Z,17.92
2023-01-17T21:21:30.396Z,20.48
2023-01-17T21:23:59.114Z,12.05
2023-01-17T21:26:27.364Z,28.48
2023-01-17T21:28:55.336Z,15.98
2023-01-17T21:31:28.295Z,39.25
2023-01-17T21:34:03.398Z,7.15
2023-01-17T21:36:33.437Z,5.78
2023-01-17T21:39:05.292Z,5.10
2023-01-17T21:41:34.962Z,4.50
2023-01-17T21:44:04.119Z,19.95
2023-01-17T21:46:30.880Z,8.27
2023-01-17T21:48:57.916Z,6.35
2023-01-17T21:51:45.424Z,3.67
2023-01-17T21:54:12.387Z,9.25
2023-01-17T21:56:58.164Z,6.32
2023-01-17T21:59:25.056Z,2.70
2023-01-17T22:01:51.721Z,4.72
2023-01-17T22:04:18.440Z,6.20
2023-01-17T22:06:45.143Z,7.72
2023-01-17T22:09:12.092Z,5.72
2023-01-17T22:11:38.924Z,5.25
2023-01-17T22:14:06.754Z,7.72
2023-01-17T22:16:34.745Z,7.53
2023-01-17T22:19:01.420Z,5.32
2023-01-17T22:21:29.165Z,7.47
2023-01-17T22:23:58.554Z,5.85
2023-01-17T22:26:28.141Z,6.57
2023-01-17T22:28:55.117Z,5.85
2023-01-17T22:31:24.750Z,8.35
2023-01-17T22:34:00.135Z,6.55
2023-01-17T22:36:27.992Z,10.48
2023-01-17T22:38:55.132Z,10.00
2023-01-17T22:41:24.605Z,6.70
2023-01-17T22:43:53.660Z,7.28
2023-01-17T22:46:23.571Z,6.80
2023-01-17T22:48:50.644Z,6.25
2023-01-17T22:51:19.021Z,11.88
2023-01-17T22:53:48.218Z,9.77
2023-01-17T22:56:17.654Z,13.77
2023-01-17T22:58:45.148Z,14.38
2023-01-17T23:01:18.427Z,12.63
2023-01-17T23:03:46.609Z,15.98
2023-01-17T23:06:21.940Z,11.02
2023-01-17T23:08:51.078Z,13.20
2023-01-17T23:11:46.259Z,14.02
2023-01-17T23:14:30.773Z,9.77
2023-01-17T23:17:18.193Z,13.48
2023-01-17T23:19:49.734Z,8.02
2023-01-17T23:22:27.944Z,9.50
2023-01-17T23:24:57.238Z,9.68
2023-01-17T23:27:52.298Z,7.22
2023-01-17T23:30:22.026Z,8.73
2023-01-17T23:32:51.606Z,11.02
2023-01-17T23:35:20.673Z,14.30
2023-01-17T23:38:06.613Z,11.95
2023-01-17T23:40:34.820Z,16.33
2023-01-17T23:43:20.602Z,15.85
2023-01-17T23:45:47.288Z,14.18
2023-01-17T23:48:14.015Z,17.52
2023-01-17T23:50:45.623Z,14.13
2023-01-17T23:53:22.086Z,15.40
2023-01-17T23:55:51.752Z,12.57
2023-01-17T23:58:19.588Z,13.77
